Swansboro, North Carolina
Current Conditions -  °F | °C
As of 6:57 AM on Thursday 23 Oct 2014 (Local Time) from KNJM Reporting Station
Clear Clear  
Wind Chill: 44°   Ceiling: Unl
Heat Index: 48°   Visibility: 10mi
Dew Point: 43°   Wind: 9mph
Humidity: 83%   Direction: 320°NW
Pressure: 29.98"   Gusts: NA
Location:  34.69°N, 77.12°W
Report Text: KNJM 231057Z 32008KT 10SM CLR 09/06 A2998 RMK AO2 SLP157 T00890061 $
Loading
Personal Weather Stations






























Interactive Weather Map
Tropical Storm Tracking
New forecast layout! Learn more

10-Day Weather Forecast

Advertisements
Track Severe Weather on mobile